Time;durP1;ratioP1;P1;durP2;ratioP2;P2;SDS_P1;SDS_P2;PMS_P1;PMS_P2;Temp;Humidity;BMP_temperature;BMP_pressure;BME280_temperature;BME280_humidity;BME280_pressure;Samples;Min_cycle;Max_cycle;Signal;HPM_P1;HPM_P2
2024/04/10 00:00:15;;;;;;;2.93;1.90;;;10.80;99.90;;;;;;5281209;26;20531;-60
2024/04/10 00:02:42;;;;;;;4.50;1.83;;;10.70;99.90;;;;;;5282164;26;20671;-61
2024/04/10 00:05:17;;;;;;;2.70;1.80;;;10.70;99.90;;;;;;5283890;26;20547;-64
2024/04/10 00:07:45;;;;;;;2.87;2.03;;;10.70;99.90;;;;;;5273027;26;21047;-60
2024/04/10 00:10:16;;;;;;;3.33;2.00;;;10.70;99.90;;;;;;5285313;26;20908;-61
2024/04/10 00:12:44;;;;;;;2.90;2.20;;;10.60;99.90;;;;;;5282629;26;20495;-61
2024/04/10 00:15:15;;;;;;;3.63;2.10;;;10.60;99.90;;;;;;5280509;26;20563;-61
2024/04/10 00:17:42;;;;;;;6.13;2.50;;;10.60;99.90;;;;;;5291619;26;20612;-61
2024/04/10 00:20:15;;;;;;;2.83;1.97;;;10.60;99.90;;;;;;5285117;26;20486;-61
2024/04/10 00:22:42;;;;;;;3.53;2.20;;;10.60;99.90;;;;;;5269680;26;20496;-60
2024/04/10 00:25:13;;;;;;;2.80;2.10;;;10.60;99.90;;;;;;5284722;26;20865;-63
2024/04/10 00:27:43;;;;;;;4.20;2.70;;;10.60;99.90;;;;;;5296773;26;20482;-61
2024/04/10 00:30:10;;;;;;;2.57;2.37;;;10.60;99.90;;;;;;5294148;26;20535;-61
2024/04/10 00:32:40;;;;;;;2.90;2.27;;;10.60;99.90;;;;;;5293333;26;20502;-61
2024/04/10 00:35:07;;;;;;;4.50;2.50;;;10.60;99.90;;;;;;5297064;26;20563;-61
2024/04/10 00:37:40;;;;;;;2.90;2.30;;;10.60;99.90;;;;;;5291330;26;20491;-60
2024/04/10 00:40:08;;;;;;;5.33;2.20;;;10.50;99.90;;;;;;5295368;26;20482;-61
2024/04/10 00:42:38;;;;;;;3.27;2.43;;;10.50;99.90;;;;;;5298669;26;20949;-61
2024/04/10 00:45:05;;;;;;;4.33;2.40;;;10.60;99.90;;;;;;5296803;26;20530;-61
2024/04/10 00:47:35;;;;;;;4.87;2.30;;;10.60;99.90;;;;;;5280187;26;21847;-61
2024/04/10 00:50:03;;;;;;;2.57;2.27;;;10.50;99.90;;;;;;5280523;26;20551;-60
2024/04/10 00:52:33;;;;;;;3.30;2.37;;;10.50;99.90;;;;;;5276664;26;20498;-61
2024/04/10 00:55:04;;;;;;;3.23;2.20;;;10.50;99.90;;;;;;5288927;26;21125;-61
2024/04/10 00:57:34;;;;;;;4.50;2.43;;;10.50;99.90;;;;;;5278835;26;20547;-60
2024/04/10 01:00:01;;;;;;;5.30;2.80;;;10.50;99.90;;;;;;5283685;26;20543;-60
2024/04/10 01:02:31;;;;;;;7.10;3.30;;;10.50;99.90;;;;;;5280332;26;20483;-61
2024/04/10 01:04:58;;;;;;;4.33;3.27;;;10.50;99.90;;;;;;5283422;26;20491;-61
2024/04/10 01:07:28;;;;;;;4.73;2.80;;;10.50;99.90;;;;;;5272425;26;20530;-61
2024/04/10 01:09:55;;;;;;;4.53;2.60;;;10.50;99.90;;;;;;5287784;26;20565;-62
2024/04/10 01:12:29;;;;;;;4.30;2.60;;;10.40;99.90;;;;;;5278334;26;20604;-62
2024/04/10 01:14:59;;;;;;;4.03;2.50;;;10.40;99.90;;;;;;5273096;27;20550;-61
2024/04/10 01:17:26;;;;;;;4.57;2.97;;;10.40;99.90;;;;;;5287595;26;21064;-64
2024/04/10 01:19:56;;;;;;;4.37;3.03;;;10.40;99.90;;;;;;5280768;26;20903;-67
2024/04/10 01:22:23;;;;;;;4.83;3.10;;;10.50;99.90;;;;;;5289216;26;20884;-64
2024/04/10 01:24:55;;;;;;;3.07;2.73;;;10.50;99.90;;;;;;5277423;26;20558;-64
2024/04/10 01:27:22;;;;;;;5.97;3.17;;;10.50;99.90;;;;;;5283116;26;20894;-64
2024/04/10 01:29:52;;;;;;;5.73;3.20;;;10.50;99.90;;;;;;5279842;26;20716;-64
2024/04/10 01:32:19;;;;;;;5.33;3.13;;;10.50;99.90;;;;;;5271393;26;21099;-66
2024/04/10 01:34:49;;;;;;;4.80;2.93;;;10.50;99.90;;;;;;5281456;26;20580;-64
2024/04/10 01:37:17;;;;;;;4.43;2.67;;;10.50;99.90;;;;;;5275876;26;20483;-66
2024/04/10 01:39:46;;;;;;;4.20;3.07;;;10.50;99.90;;;;;;5283811;26;20487;-64
2024/04/10 01:42:16;;;;;;;6.30;3.30;;;10.50;99.90;;;;;;5272008;26;20550;-66
2024/04/10 01:44:46;;;;;;;7.40;3.47;;;10.50;99.90;;;;;;5281213;26;20555;-63
2024/04/10 01:47:13;;;;;;;5.20;3.17;;;10.40;99.90;;;;;;5278985;26;20475;-64
2024/04/10 01:49:43;;;;;;;4.97;3.00;;;10.40;99.90;;;;;;5283002;26;21003;-64
2024/04/10 01:52:10;;;;;;;5.70;3.20;;;10.40;99.90;;;;;;5273661;26;20555;-65
2024/04/10 01:54:40;;;;;;;4.33;3.17;;;10.40;99.90;;;;;;5277644;26;20499;-67
2024/04/10 01:57:07;;;;;;;4.07;3.03;;;10.30;99.90;;;;;;5288109;26;20478;-64
2024/04/10 01:59:39;;;;;;;4.63;3.40;;;10.40;99.90;;;;;;5289452;27;20487;-66
2024/04/10 02:02:06;;;;;;;4.60;2.90;;;10.40;99.90;;;;;;5257691;26;21043;-66
2024/04/10 02:04:36;;;;;;;6.20;3.10;;;10.40;99.90;;;;;;5288883;26;20498;-63
2024/04/10 02:07:04;;;;;;;5.00;3.37;;;10.50;99.90;;;;;;5283259;26;20478;-64
2024/04/10 02:09:34;;;;;;;5.23;3.20;;;10.40;99.90;;;;;;5294403;26;20539;-63
2024/04/10 02:12:02;;;;;;;4.73;2.77;;;10.40;99.90;;;;;;5288381;26;21027;-64
2024/04/10 02:14:35;;;;;;;5.67;3.17;;;10.40;99.90;;;;;;5282747;26;20539;-64
2024/04/10 02:17:05;;;;;;;5.37;2.80;;;10.40;99.90;;;;;;5268838;26;20487;-66
2024/04/10 02:19:35;;;;;;;8.27;3.37;;;10.50;99.90;;;;;;5286124;26;20879;-64
2024/04/10 02:22:03;;;;;;;5.27;3.07;;;10.50;99.90;;;;;;5278303;26;20498;-67
2024/04/10 02:24:33;;;;;;;4.53;3.20;;;10.50;99.90;;;;;;5284065;26;20483;-64
2024/04/10 02:27:00;;;;;;;4.83;3.40;;;10.50;99.90;;;;;;5285962;26;20552;-65
2024/04/10 02:29:31;;;;;;;6.77;3.50;;;10.50;99.90;;;;;;5286236;26;20537;-63
2024/04/10 02:31:58;;;;;;;3.80;3.50;;;10.40;99.90;;;;;;5284203;26;21158;-62
2024/04/10 02:34:30;;;;;;;4.77;3.30;;;10.30;99.90;;;;;;5288599;26;20540;-63
2024/04/10 02:36:57;;;;;;;3.90;3.57;;;10.20;99.90;;;;;;5288651;26;20555;-65
2024/04/10 02:39:28;;;;;;;4.60;3.40;;;10.20;99.90;;;;;;5281588;26;20511;-65
2024/04/10 02:41:55;;;;;;;6.67;3.77;;;10.10;99.90;;;;;;5281986;26;20610;-65
2024/04/10 02:44:25;;;;;;;5.10;3.07;;;10.10;99.90;;;;;;5290260;26;21179;-66
2024/04/10 02:46:54;;;;;;;4.80;2.53;;;10.00;99.90;;;;;;5290897;26;20996;-63
2024/04/10 02:49:23;;;;;;;4.47;2.57;;;10.00;99.90;;;;;;5276653;26;20596;-64
2024/04/10 02:51:53;;;;;;;4.03;2.00;;;9.90;99.90;;;;;;5280144;26;21043;-65
2024/04/10 02:54:23;;;;;;;4.60;2.10;;;9.90;99.90;;;;;;5269093;26;20595;-64
2024/04/10 02:56:50;;;;;;;3.30;1.73;;;9.90;99.90;;;;;;5270209;26;20498;-64
2024/04/10 02:59:20;;;;;;;2.73;1.53;;;9.90;99.90;;;;;;5288353;26;20491;-64
2024/04/10 03:01:47;;;;;;;2.20;1.60;;;9.90;99.90;;;;;;5272042;26;20490;-65
2024/04/10 03:04:17;;;;;;;2.23;1.80;;;9.90;99.90;;;;;;5271769;26;20614;-64
2024/04/10 03:06:44;;;;;;;4.47;1.83;;;9.80;99.90;;;;;;5275844;26;20539;-63
2024/04/10 03:09:17;;;;;;;3.47;1.70;;;9.80;99.90;;;;;;5272749;26;20910;-66
2024/04/10 03:11:44;;;;;;;4.70;1.67;;;9.80;99.90;;;;;;5283435;26;20551;-63
2024/04/10 03:14:14;;;;;;;2.60;2.30;;;9.80;99.90;;;;;;5283678;26;20632;-64
2024/04/10 03:16:41;;;;;;;2.77;1.17;;;9.80;99.90;;;;;;5283377;26;20598;-63
2024/04/10 03:19:14;;;;;;;3.07;1.50;;;9.80;99.90;;;;;;5282922;26;20498;-63
2024/04/10 03:21:41;;;;;;;1.80;1.17;;;9.80;99.90;;;;;;5287491;26;21192;-65
2024/04/10 03:24:11;;;;;;;2.27;1.10;;;9.90;99.90;;;;;;5277020;26;20551;-64
2024/04/10 03:28:33;;;;;;;2.90;1.23;;;9.90;99.90;;;;;;5494154;25;20624;-66
2024/04/10 03:31:03;;;;;;;3.83;1.40;;;9.80;99.90;;;;;;5459541;25;20487;-63
2024/04/10 03:33:32;;;;;;;3.03;1.47;;;9.80;99.90;;;;;;5432661;26;20489;-65
2024/04/10 03:36:00;;;;;;;4.23;1.50;;;9.80;99.90;;;;;;5438236;26;20563;-65
2024/04/10 03:38:30;;;;;;;3.20;1.30;;;9.80;99.90;;;;;;5417072;26;20593;-66
2024/04/10 03:40:57;;;;;;;2.63;1.20;;;9.80;99.90;;;;;;5422262;25;20478;-62
2024/04/10 03:43:27;;;;;;;2.43;1.20;;;9.80;99.90;;;;;;5389963;26;22023;-63
2024/04/10 03:46:00;;;;;;;4.23;1.30;;;9.80;99.90;;;;;;5389659;26;20479;-63
2024/04/10 03:48:33;;;;;;;5.20;2.13;;;9.70;99.90;;;;;;5387801;26;20486;-61
2024/04/10 03:51:00;;;;;;;1.93;1.40;;;9.70;99.90;;;;;;5388297;26;20485;-60
2024/04/10 03:53:31;;;;;;;1.63;1.03;;;9.80;99.90;;;;;;5391642;26;20536;-60
2024/04/10 03:55:58;;;;;;;3.70;1.27;;;9.80;99.90;;;;;;5392573;26;20910;-61
2024/04/10 03:58:28;;;;;;;3.13;1.00;;;9.80;99.90;;;;;;5375981;26;20518;-60
2024/04/10 04:00:57;;;;;;;4.57;1.07;;;9.80;99.90;;;;;;5388439;26;20482;-61
2024/04/10 04:03:27;;;;;;;1.60;1.17;;;9.80;99.90;;;;;;5389576;26;20552;-61
2024/04/10 04:05:55;;;;;;;5.40;1.47;;;9.80;99.90;;;;;;5393152;26;21042;-61
2024/04/10 04:08:24;;;;;;;3.40;1.03;;;9.70;99.90;;;;;;5387903;26;21114;-61
2024/04/10 04:10:54;;;;;;;2.23;1.17;;;9.70;99.90;;;;;;5397172;26;20525;-61
2024/04/10 04:13:24;;;;;;;1.70;1.00;;;9.70;99.90;;;;;;5390395;26;20536;-62
2024/04/10 04:15:51;;;;;;;2.40;1.00;;;9.70;99.90;;;;;;5397491;26;20528;-61
2024/04/10 04:18:24;;;;;;;2.47;1.60;;;9.70;99.90;;;;;;5386001;26;20584;-61
2024/04/10 04:20:51;;;;;;;2.03;1.30;;;9.80;99.90;;;;;;5394796;26;20590;-61
2024/04/10 04:23:21;;;;;;;5.03;1.20;;;9.80;99.90;;;;;;5384465;26;20538;-61
2024/04/10 04:25:49;;;;;;;2.27;1.13;;;9.80;99.90;;;;;;5401611;26;21304;-62
2024/04/10 04:28:19;;;;;;;1.80;1.30;;;9.90;99.90;;;;;;5401634;26;20490;-60
2024/04/10 04:30:47;;;;;;;3.00;1.27;;;9.90;99.90;;;;;;5395161;26;20483;-60
2024/04/10 04:33:16;;;;;;;2.90;1.40;;;9.80;99.90;;;;;;5402536;26;21042;-61
2024/04/10 04:35:47;;;;;;;3.27;1.20;;;9.80;99.90;;;;;;5399034;26;20618;-61
2024/04/10 04:38:17;;;;;;;1.83;1.13;;;9.90;99.90;;;;;;5392785;26;20483;-61
2024/04/10 04:40:45;;;;;;;3.63;1.60;;;9.80;99.90;;;;;;5381538;26;20468;-61
2024/04/10 04:43:15;;;;;;;2.50;1.43;;;9.90;99.90;;;;;;5380268;26;20783;-61
2024/04/10 04:45:42;;;;;;;3.63;1.10;;;9.90;99.90;;;;;;5382114;26;21795;-61
2024/04/10 04:48:13;;;;;;;1.90;1.37;;;9.90;99.90;;;;;;5378358;26;20533;-61
2024/04/10 04:50:41;;;;;;;2.83;1.70;;;9.80;99.90;;;;;;5379269;26;20542;-60
2024/04/10 04:53:16;;;;;;;5.53;1.43;;;9.80;99.90;;;;;;5374515;26;20569;-61
2024/04/10 04:55:44;;;;;;;3.13;1.90;;;9.80;99.90;;;;;;5362729;26;20490;-61
2024/04/10 04:58:14;;;;;;;3.10;1.50;;;9.80;99.90;;;;;;5367807;26;20478;-61
2024/04/10 05:00:41;;;;;;;4.10;1.60;;;9.80;99.90;;;;;;5372062;26;20583;-61
2024/04/10 05:04:54;;;;;;;5.60;1.70;;;9.90;99.90;;;;;;5358580;26;20488;-61
2024/04/10 05:06:04;;;;;;;2.07;1.80;;;9.80;99.90;;;;;;5374171;26;20494;-59
2024/04/10 05:08:36;;;;;;;2.13;1.20;;;9.80;99.90;;;;;;5365247;26;20527;-61
2024/04/10 05:11:09;;;;;;;8.70;1.57;;;9.80;99.90;;;;;;5370435;26;20546;-59
2024/04/10 05:13:36;;;;;;;2.67;1.27;;;9.70;99.90;;;;;;5372136;26;20477;-61
2024/04/10 05:16:06;;;;;;;3.87;1.30;;;9.70;99.90;;;;;;5371656;26;20578;-61
2024/04/10 05:18:34;;;;;;;5.83;1.70;;;9.60;99.90;;;;;;5361517;26;20491;-61
2024/04/10 05:21:04;;;;;;;4.03;1.40;;;9.60;99.90;;;;;;5371812;26;20607;-61
2024/04/10 05:23:33;;;;;;;3.53;1.50;;;9.50;99.90;;;;;;5377218;26;20489;-59
2024/04/10 05:26:04;;;;;;;5.77;2.10;;;9.50;99.90;;;;;;5388230;26;20555;-59
2024/04/10 05:28:32;;;;;;;5.10;1.47;;;9.50;99.90;;;;;;5382262;26;20558;-61
2024/04/10 05:31:08;;;;;;;4.57;1.73;;;9.50;99.90;;;;;;5395289;26;20548;-60
2024/04/10 05:33:36;;;;;;;4.20;1.73;;;9.50;99.90;;;;;;5387022;26;20606;-63
2024/04/10 05:36:07;;;;;;;4.20;1.63;;;9.50;99.90;;;;;;5370965;26;20603;-59
2024/04/10 05:38:37;;;;;;;6.30;2.60;;;9.50;99.90;;;;;;5357776;26;22501;-60
2024/04/10 05:41:07;;;;;;;8.20;1.70;;;9.50;99.90;;;;;;5371582;26;20568;-59
2024/04/10 05:43:34;;;;;;;4.93;2.43;;;9.50;99.90;;;;;;5378473;26;20476;-59
2024/04/10 05:46:04;;;;;;;3.33;1.40;;;9.50;99.90;;;;;;5397821;26;20487;-60
2024/04/10 05:48:32;;;;;;;4.30;1.50;;;9.50;99.90;;;;;;5398053;26;20485;-60
2024/04/10 05:51:02;;;;;;;4.00;1.70;;;9.50;99.90;;;;;;5403090;26;20490;-60
2024/04/10 05:53:31;;;;;;;4.57;1.63;;;9.60;99.90;;;;;;5364395;26;21036;-59
2024/04/10 05:56:06;;;;;;;4.43;1.80;;;9.60;99.90;;;;;;5359638;26;20494;-60
2024/04/10 05:58:35;;;;;;;4.00;1.40;;;9.60;99.90;;;;;;5364044;26;20963;-61
2024/04/10 06:01:09;;;;;;;3.40;1.20;;;9.70;99.90;;;;;;5364480;26;20605;-60
2024/04/10 06:03:36;;;;;;;2.23;1.40;;;9.60;99.90;;;;;;5357633;26;20546;-59
2024/04/10 06:06:12;;;;;;;2.50;1.20;;;9.60;99.90;;;;;;5363170;26;20567;-61
2024/04/10 06:08:40;;;;;;;5.17;1.80;;;9.60;99.90;;;;;;5351595;26;20973;-59
2024/04/10 06:11:12;;;;;;;4.57;1.50;;;9.70;99.90;;;;;;5353807;26;20912;-60
2024/04/10 06:13:40;;;;;;;2.83;1.20;;;9.70;99.90;;;;;;5354863;26;20521;-60
2024/04/10 06:16:09;;;;;;;6.07;1.23;;;9.80;99.90;;;;;;5353973;26;20607;-61
2024/04/10 06:18:37;;;;;;;4.27;1.60;;;9.80;99.90;;;;;;5381470;26;20479;-61
2024/04/10 06:21:07;;;;;;;4.47;1.20;;;9.90;99.90;;;;;;5381067;26;21118;-60
2024/04/10 06:23:34;;;;;;;3.70;1.60;;;9.90;99.90;;;;;;5379251;26;21059;-60
2024/04/10 06:26:05;;;;;;;4.97;1.97;;;9.90;99.90;;;;;;5375721;26;20486;-61
2024/04/10 06:28:35;;;;;;;3.90;1.60;;;9.90;99.90;;;;;;5372577;26;20491;-61
2024/04/10 06:31:07;;;;;;;4.80;1.43;;;9.90;99.90;;;;;;5378861;26;20491;-61
2024/04/10 06:33:34;;;;;;;5.37;1.90;;;10.00;99.90;;;;;;5371420;26;20479;-61
2024/04/10 06:36:05;;;;;;;6.97;1.77;;;9.90;99.90;;;;;;5380306;26;20498;-61
2024/04/10 06:38:32;;;;;;;5.73;1.70;;;10.00;99.90;;;;;;5376599;26;20483;-60
2024/04/10 06:41:04;;;;;;;3.70;1.47;;;10.00;99.90;;;;;;5370772;26;20491;-63
2024/04/10 06:43:34;;;;;;;4.87;1.40;;;10.00;99.90;;;;;;5368798;26;20478;-64
2024/04/10 06:46:07;;;;;;;3.33;1.27;;;10.00;99.90;;;;;;5379261;26;20547;-64
2024/04/10 06:48:35;;;;;;;5.27;1.70;;;10.00;99.90;;;;;;5365871;26;21144;-67
2024/04/10 06:51:08;;;;;;;4.30;1.60;;;10.00;99.90;;;;;;5358387;26;20627;-61
2024/04/10 06:53:35;;;;;;;3.13;1.30;;;10.00;99.90;;;;;;5363388;26;20482;-61
2024/04/10 06:56:08;;;;;;;5.97;1.73;;;10.00;99.90;;;;;;5367448;26;21193;-59
2024/04/10 06:58:39;;;;;;;4.33;1.67;;;10.00;99.90;;;;;;5372003;26;20546;-60
2024/04/10 07:01:10;;;;;;;5.00;1.47;;;10.00;99.90;;;;;;5372635;26;20480;-61
2024/04/10 07:03:39;;;;;;;8.20;2.17;;;10.00;99.90;;;;;;5363871;26;20609;-61
2024/04/10 07:06:10;;;;;;;2.73;1.37;;;10.10;99.90;;;;;;5357616;26;20549;-61
2024/04/10 07:08:38;;;;;;;3.27;1.70;;;10.10;99.90;;;;;;5367073;26;20564;-61
2024/04/10 07:11:15;;;;;;;4.30;1.40;;;10.20;99.90;;;;;;5353764;26;20555;-61
2024/04/10 07:13:51;;;;;;;4.17;1.60;;;10.20;99.90;;;;;;5356794;26;20496;-60
2024/04/10 07:16:26;;;;;;;7.47;1.80;;;10.30;99.90;;;;;;5355205;26;20475;-60
2024/04/10 07:18:56;;;;;;;3.03;1.20;;;10.40;99.90;;;;;;5373826;26;20548;-60
2024/04/10 07:21:26;;;;;;;4.50;2.00;;;10.40;99.90;;;;;;5371076;26;20484;-62
2024/04/10 07:23:53;;;;;;;6.50;1.33;;;10.50;99.90;;;;;;5378025;26;20530;-62
2024/04/10 07:26:29;;;;;;;4.00;1.50;;;10.60;99.90;;;;;;5373604;26;20591;-62
2024/04/10 07:29:00;;;;;;;4.77;1.60;;;10.60;99.90;;;;;;5353370;26;20475;-61
2024/04/10 07:31:31;;;;;;;6.93;1.73;;;10.70;99.90;;;;;;5349341;26;23007;-62
2024/04/10 07:34:00;;;;;;;6.47;1.60;;;10.70;99.90;;;;;;5344106;26;20471;-61
2024/04/10 07:36:31;;;;;;;6.63;1.77;;;10.70;99.90;;;;;;5359696;26;20504;-61
2024/04/10 07:39:05;;;;;;;6.27;2.00;;;10.70;99.90;;;;;;5361784;26;20508;-61
2024/04/10 07:41:35;;;;;;;5.23;1.60;;;10.80;99.90;;;;;;5340348;26;21170;-62
2024/04/10 07:44:07;;;;;;;4.70;1.50;;;10.70;99.90;;;;;;5363338;26;21102;-61
2024/04/10 07:46:37;;;;;;;5.50;2.00;;;10.70;99.90;;;;;;5364766;26;20728;-60
2024/04/10 07:49:07;;;;;;;7.10;2.10;;;10.60;99.90;;;;;;5364634;26;20524;-60
2024/04/10 07:51:37;;;;;;;6.43;1.50;;;10.60;99.90;;;;;;5372603;26;20492;-62
2024/04/10 07:54:04;;;;;;;6.30;1.70;;;10.50;99.90;;;;;;5373356;26;20669;-60
2024/04/10 07:56:34;;;;;;;4.10;1.53;;;10.50;99.90;;;;;;5374123;26;20480;-62
2024/04/10 07:59:01;;;;;;;7.80;2.00;;;10.50;99.90;;;;;;5364437;26;20549;-61
2024/04/10 08:01:34;;;;;;;4.50;1.80;;;10.40;99.90;;;;;;5358550;26;20479;-61
2024/04/10 08:04:05;;;;;;;4.50;1.90;;;10.50;99.90;;;;;;5357585;26;20542;-61
2024/04/10 08:06:36;;;;;;;4.20;1.53;;;10.40;99.90;;;;;;5356181;26;20535;-62
2024/04/10 08:09:04;;;;;;;6.83;1.80;;;10.50;99.90;;;;;;5342955;26;20483;-60
2024/04/10 08:11:34;;;;;;;4.77;1.77;;;10.50;99.90;;;;;;5343429;26;22410;-60
2024/04/10 08:14:02;;;;;;;4.60;2.00;;;10.50;99.90;;;;;;5358726;26;20932;-60
2024/04/10 08:16:35;;;;;;;4.50;2.07;;;10.50;99.90;;;;;;5343943;26;20513;-59
2024/04/10 08:19:02;;;;;;;7.43;1.90;;;10.60;99.90;;;;;;5354989;26;20550;-60
2024/04/10 08:21:36;;;;;;;6.30;2.10;;;10.70;99.90;;;;;;5360821;26;20494;-60
2024/04/10 08:24:04;;;;;;;5.93;1.80;;;10.90;99.90;;;;;;5366848;26;20551;-59
2024/04/10 08:26:33;;;;;;;4.00;1.30;;;11.00;99.90;;;;;;5372231;26;20540;-60
2024/04/10 08:29:02;;;;;;;3.20;1.43;;;11.10;99.90;;;;;;5370839;26;20480;-60
2024/04/10 08:31:35;;;;;;;8.23;1.97;;;11.20;99.90;;;;;;5375640;26;20499;-60
2024/04/10 08:34:02;;;;;;;4.73;1.67;;;11.40;99.90;;;;;;5368066;26;20491;-59
2024/04/10 08:36:33;;;;;;;3.80;1.50;;;11.40;99.90;;;;;;5366725;26;20484;-59
2024/04/10 08:39:01;;;;;;;6.97;1.90;;;11.50;99.90;;;;;;5373374;26;20543;-59
2024/04/10 08:41:30;;;;;;;8.03;2.20;;;11.60;99.90;;;;;;5365199;26;20495;-61
2024/04/10 08:43:58;;;;;;;3.47;1.73;;;11.60;99.90;;;;;;5377549;26;20480;-61
2024/04/10 08:46:28;;;;;;;5.63;1.83;;;11.60;99.90;;;;;;5374614;26;20527;-62
2024/04/10 08:49:01;;;;;;;6.17;2.63;;;11.60;99.90;;;;;;5367506;26;21399;-60
2024/04/10 08:51:33;;;;;;;2.47;1.40;;;11.60;99.90;;;;;;5353398;26;20883;-61
2024/04/10 08:54:00;;;;;;;2.80;1.40;;;11.70;99.90;;;;;;5364304;26;20541;-61
2024/04/10 08:56:30;;;;;;;5.67;2.10;;;11.70;99.90;;;;;;5360163;26;21173;-61
2024/04/10 08:58:57;;;;;;;3.03;1.23;;;11.90;99.90;;;;;;5357559;26;20495;-62
2024/04/10 09:01:28;;;;;;;3.27;1.40;;;12.00;99.90;;;;;;5358669;26;20498;-64
2024/04/10 09:04:03;;;;;;;6.67;1.80;;;12.10;99.90;;;;;;5356657;26;20524;-61
2024/04/10 09:06:33;;;;;;;4.23;1.63;;;12.10;99.90;;;;;;5365313;26;20490;-61
2024/04/10 09:09:03;;;;;;;3.70;1.53;;;12.20;99.90;;;;;;5362952;26;20487;-61
2024/04/10 09:11:33;;;;;;;6.43;1.90;;;12.20;99.90;;;;;;5355840;26;20507;-61
2024/04/10 09:14:01;;;;;;;4.73;1.50;;;12.20;99.90;;;;;;5355952;26;21110;-60
2024/04/10 09:16:32;;;;;;;5.27;1.70;;;12.20;99.90;;;;;;5353373;26;20832;-60
2024/04/10 09:19:12;;;;;;;6.03;1.70;;;12.10;99.90;;;;;;5358228;26;20480;-61
2024/04/10 09:21:43;;;;;;;5.27;1.97;;;12.10;99.90;;;;;;5359308;26;20474;-61
2024/04/10 09:24:10;;;;;;;5.60;1.70;;;12.10;99.90;;;;;;5375051;26;20547;-62
2024/04/10 09:26:41;;;;;;;5.03;1.43;;;12.10;99.90;;;;;;5374851;26;20476;-61
2024/04/10 09:29:12;;;;;;;4.53;1.40;;;12.10;99.90;;;;;;5365515;26;20478;-61
2024/04/10 09:31:44;;;;;;;6.20;1.80;;;12.20;99.90;;;;;;5368555;26;20576;-63
2024/04/10 09:34:17;;;;;;;8.97;2.03;;;12.20;99.90;;;;;;5362923;26;20482;-64
2024/04/10 09:36:49;;;;;;;5.97;3.00;;;12.20;99.90;;;;;;5369052;26;20494;-61
2024/04/10 09:39:22;;;;;;;5.93;1.70;;;12.20;99.90;;;;;;5367359;26;20475;-60
2024/04/10 09:41:58;;;;;;;7.00;2.07;;;12.10;99.90;;;;;;5369974;26;20587;-61
2024/04/10 09:44:30;;;;;;;5.93;1.80;;;12.10;99.90;;;;;;5368521;26;20482;-62
2024/04/10 09:47:01;;;;;;;6.07;2.00;;;12.10;99.90;;;;;;5364272;26;20484;-61
2024/04/10 09:49:40;;;;;;;8.23;2.30;;;12.10;99.90;;;;;;5351785;26;20522;-60
2024/04/10 09:52:12;;;;;;;4.33;1.77;;;12.10;99.90;;;;;;5354678;26;20478;-60
2024/04/10 09:54:40;;;;;;;7.00;1.90;;;12.10;99.90;;;;;;5353200;26;20562;-60
2024/04/10 09:57:13;;;;;;;5.83;1.90;;;12.20;99.90;;;;;;5359057;26;20491;-61
2024/04/10 09:59:41;;;;;;;5.13;2.20;;;12.30;99.90;;;;;;5366681;26;20488;-60
2024/04/10 10:02:19;;;;;;;6.00;2.10;;;12.40;99.90;;;;;;5355442;26;20569;-61
2024/04/10 10:04:49;;;;;;;7.10;2.00;;;12.50;99.90;;;;;;5350356;26;20825;-61
2024/04/10 10:07:23;;;;;;;5.60;2.27;;;12.50;99.90;;;;;;5359368;26;20491;-62
2024/04/10 10:09:50;;;;;;;3.43;1.93;;;12.60;99.90;;;;;;5363089;26;21389;-62
2024/04/10 10:12:27;;;;;;;6.47;1.83;;;12.60;99.90;;;;;;5355912;26;20533;-61
2024/04/10 10:15:05;;;;;;;5.70;1.70;;;12.60;99.90;;;;;;5347869;26;20538;-60
2024/04/10 10:17:35;;;;;;;3.90;1.63;;;12.60;99.90;;;;;;5353223;26;20486;-64
2024/04/10 10:20:25;;;;;;;4.50;2.00;;;12.50;99.90;;;;;;5356208;26;20482;-61
2024/04/10 10:23:02;;;;;;;4.63;1.87;;;12.40;99.90;;;;;;5357398;26;20543;-62
2024/04/10 10:25:29;;;;;;;4.83;2.10;;;12.40;99.90;;;;;;5379470;26;20478;-62
2024/04/10 10:28:07;;;;;;;4.20;1.57;;;12.50;99.90;;;;;;5366944;26;21370;-61
2024/04/10 10:30:34;;;;;;;4.00;1.50;;;12.40;99.90;;;;;;5373957;26;20486;-62
2024/04/10 10:33:06;;;;;;;9.60;2.40;;;12.40;99.90;;;;;;5381209;26;21108;-61
2024/04/10 10:35:37;;;;;;;5.50;1.93;;;12.40;99.90;;;;;;5379208;26;20482;-60
2024/04/10 10:38:07;;;;;;;5.23;1.90;;;12.40;99.90;;;;;;5373476;26;20580;-62
2024/04/10 10:40:35;;;;;;;4.00;1.80;;;12.50;99.90;;;;;;5371167;26;20860;-62
2024/04/10 10:43:07;;;;;;;4.00;1.57;;;12.60;99.90;;;;;;5372717;26;20546;-61
2024/04/10 10:45:35;;;;;;;7.60;2.00;;;12.70;99.90;;;;;;5374772;26;21088;-61
2024/04/10 10:48:07;;;;;;;3.43;1.57;;;12.70;99.90;;;;;;5362192;26;20569;-61
2024/04/10 10:50:37;;;;;;;4.97;1.97;;;12.90;99.90;;;;;;5350031;26;20472;-60
2024/04/10 10:53:08;;;;;;;5.40;1.77;;;13.00;99.90;;;;;;5347373;26;21027;-62
2024/04/10 10:55:48;;;;;;;4.00;1.90;;;13.20;99.90;;;;;;5345533;26;20491;-60
2024/04/10 10:58:18;;;;;;;3.63;1.50;;;13.40;99.90;;;;;;5336975;26;20475;-60
2024/04/10 11:00:45;;;;;;;3.23;1.47;;;13.50;99.90;;;;;;5354670;26;20496;-61
2024/04/10 11:03:17;;;;;;;3.97;1.60;;;13.50;99.90;;;;;;5384601;26;20502;-62
2024/04/10 11:06:06;;;;;;;5.83;1.70;;;13.40;99.90;;;;;;5377487;26;20473;-62
2024/04/10 11:08:36;;;;;;;3.63;1.80;;;13.40;99.90;;;;;;5399333;26;20538;-60
2024/04/10 11:11:04;;;;;;;3.80;1.27;;;13.30;99.90;;;;;;5400087;26;20475;-61
2024/04/10 11:13:38;;;;;;;3.60;1.70;;;13.20;99.90;;;;;;5391367;26;21089;-60
2024/04/10 11:16:06;;;;;;;3.17;1.60;;;13.20;99.90;;;;;;5397616;26;20491;-60
2024/04/10 11:18:35;;;;;;;2.80;1.63;;;13.20;99.90;;;;;;5390179;26;20463;-61
2024/04/10 11:21:05;;;;;;;6.70;2.40;;;13.20;99.90;;;;;;5397559;26;20485;-60
2024/04/10 11:23:36;;;;;;;5.53;1.83;;;13.20;99.90;;;;;;5416373;26;20481;-61
2024/04/10 11:26:04;;;;;;;4.03;1.70;;;13.20;99.90;;;;;;5408578;26;20482;-62
2024/04/10 11:28:34;;;;;;;7.53;2.20;;;13.20;99.90;;;;;;5413510;26;20479;-61
2024/04/10 11:31:01;;;;;;;4.80;1.80;;;13.10;99.90;;;;;;5394286;26;20485;-61
2024/04/10 11:33:31;;;;;;;3.60;1.90;;;13.00;99.90;;;;;;5393833;26;20517;-62
2024/04/10 11:35:59;;;;;;;4.47;1.73;;;13.00;99.90;;;;;;5396162;26;20530;-60
2024/04/10 11:38:32;;;;;;;7.00;2.07;;;13.00;99.90;;;;;;5384702;26;20755;-61
2024/04/10 11:40:59;;;;;;;5.57;2.30;;;12.90;99.90;;;;;;5394915;26;20589;-61
2024/04/10 11:43:32;;;;;;;5.53;2.00;;;12.90;99.90;;;;;;5395813;26;20470;-62
2024/04/10 11:45:59;;;;;;;5.70;1.67;;;12.90;99.90;;;;;;5396338;26;21037;-61
2024/04/10 11:48:29;;;;;;;4.40;1.67;;;12.90;99.90;;;;;;5401803;26;21045;-62
2024/04/10 11:50:57;;;;;;;4.47;1.77;;;12.90;99.90;;;;;;5399320;26;20887;-61
2024/04/10 11:53:28;;;;;;;4.77;2.00;;;12.90;99.90;;;;;;5356038;26;20490;-61
2024/04/10 11:55:58;;;;;;;3.37;2.00;;;13.00;99.90;;;;;;5348618;26;20983;-58
2024/04/10 11:58:28;;;;;;;3.40;2.00;;;13.30;99.90;;;;;;5357115;26;20534;-60
2024/04/10 12:00:55;;;;;;;4.80;2.00;;;13.50;99.90;;;;;;5367552;26;20478;-60
2024/04/10 12:03:25;;;;;;;3.63;2.23;;;13.70;99.90;;;;;;5351528;26;21094;-60
2024/04/10 12:05:53;;;;;;;2.03;1.80;;;13.80;99.90;;;;;;5361326;26;20540;-60
2024/04/10 12:08:24;;;;;;;4.70;2.03;;;14.00;99.90;;;;;;5360819;26;20910;-59
2024/04/10 12:10:52;;;;;;;5.70;2.10;;;14.20;99.90;;;;;;5355549;26;20948;-60
2024/04/10 12:13:24;;;;;;;3.90;1.80;;;14.30;99.90;;;;;;5352158;26;20545;-60
2024/04/10 12:15:51;;;;;;;3.30;1.50;;;14.50;99.90;;;;;;5350571;26;20549;-60
2024/04/10 12:18:21;;;;;;;3.87;1.83;;;14.70;99.90;;;;;;5367863;26;22869;-60
2024/04/10 12:20:48;;;;;;;3.33;2.10;;;15.00;99.90;;;;;;5340695;26;21107;-60
2024/04/10 12:23:18;;;;;;;3.27;1.90;;;15.20;99.90;;;;;;5350784;26;20487;-60
2024/04/10 12:25:45;;;;;;;4.70;1.93;;;15.50;99.90;;;;;;5368867;26;20480;-61
2024/04/10 12:28:15;;;;;;;2.17;1.83;;;15.80;99.90;;;;;;5378877;26;20548;-61
2024/04/10 12:30:48;;;;;;;3.80;1.73;;;16.00;99.90;;;;;;5360262;26;20563;-60
2024/04/10 12:33:18;;;;;;;5.20;1.90;;;16.10;99.90;;;;;;5364803;26;22733;-61
2024/04/10 12:38:34;;;;;;;2.83;1.97;;;16.00;99.90;;;;;;5370224;26;20546;-59
2024/04/10 12:41:06;;;;;;;3.67;1.80;;;16.10;99.90;;;;;;5361259;26;20470;-59
2024/04/10 12:43:33;;;;;;;3.97;1.63;;;16.20;99.90;;;;;;5360267;26;20483;-60
2024/04/10 12:46:05;;;;;;;5.30;1.80;;;16.30;99.90;;;;;;5355386;26;20607;-59
2024/04/10 12:48:33;;;;;;;3.70;2.00;;;16.30;99.90;;;;;;5361631;26;20490;-60
2024/04/10 12:51:03;;;;;;;3.70;2.10;;;16.10;99.90;;;;;;5368264;26;20470;-60
2024/04/10 12:53:31;;;;;;;6.30;2.40;;;15.90;99.90;;;;;;5367613;26;20915;-58
2024/04/10 12:56:01;;;;;;;2.57;1.77;;;15.70;99.90;;;;;;5362064;26;20559;-59
2024/04/10 12:58:28;;;;;;;3.93;2.20;;;15.60;99.90;;;;;;5346446;26;20594;-60
2024/04/10 13:00:58;;;;;;;6.20;2.13;;;15.60;99.90;;;;;;5366501;26;20478;-59
2024/04/10 13:03:31;;;;;;;5.47;2.30;;;15.50;99.90;;;;;;5368194;26;20490;-59
2024/04/10 13:06:02;;;;;;;5.57;2.03;;;15.40;99.90;;;;;;5364350;26;21399;-60
2024/04/10 13:08:29;;;;;;;5.00;2.10;;;15.20;99.90;;;;;;5361810;26;20562;-60